createdAt,value
2019-05-30T00:00:30.030Z,0.00
2019-05-30T00:01:30.063Z,0.00
2019-05-30T00:02:30.099Z,0.00
2019-05-30T00:03:30.146Z,0.00
2019-05-30T00:04:30.180Z,0.00
2019-05-30T00:05:30.216Z,0.00
2019-05-30T00:06:30.254Z,0.00
2019-05-30T00:07:30.293Z,0.00
2019-05-30T00:08:30.332Z,0.00
2019-05-30T00:09:30.370Z,0.00
2019-05-30T00:10:30.411Z,0.00
2019-05-30T00:11:30.447Z,0.00
2019-05-30T00:12:30.487Z,0.00
2019-05-30T00:13:30.529Z,0.00
2019-05-30T00:14:30.565Z,0.00
2019-05-30T00:15:30.603Z,0.00
2019-05-30T00:16:30.642Z,0.00
2019-05-30T00:17:30.680Z,0.00
2019-05-30T00:18:30.725Z,0.00
2019-05-30T00:19:33.797Z,0.00
2019-05-30T00:20:30.799Z,0.00
2019-05-30T00:21:30.844Z,0.00
2019-05-30T00:22:30.876Z,0.00
2019-05-30T00:23:30.916Z,0.00
2019-05-30T00:24:30.954Z,0.00
2019-05-30T00:25:30.991Z,0.00
2019-05-30T00:26:31.031Z,0.00
2019-05-30T00:27:31.077Z,0.00
2019-05-30T00:28:31.109Z,0.00
2019-05-30T00:29:31.147Z,0.00
2019-05-30T00:30:31.190Z,0.00
2019-05-30T00:31:31.223Z,0.00
2019-05-30T00:32:31.269Z,0.00
2019-05-30T00:33:31.302Z,0.00
2019-05-30T00:34:31.343Z,0.00
2019-05-30T00:35:31.380Z,0.00
2019-05-30T00:36:31.421Z,0.00
2019-05-30T00:37:31.460Z,0.00
2019-05-30T00:38:31.499Z,0.00
2019-05-30T00:39:31.537Z,0.00
2019-05-30T00:40:31.573Z,0.00
2019-05-30T00:41:31.621Z,0.00
2019-05-30T00:42:31.649Z,0.00
2019-05-30T00:43:31.691Z,0.00
2019-05-30T00:44:31.731Z,0.00
2019-05-30T00:45:31.766Z,0.00
2019-05-30T00:46:31.804Z,0.00
2019-05-30T00:47:31.844Z,0.00
2019-05-30T00:48:31.882Z,0.00
2019-05-30T00:49:31.927Z,0.00
2019-05-30T00:50:31.963Z,0.00
2019-05-30T00:51:31.997Z,0.00
2019-05-30T00:52:32.039Z,0.00
2019-05-30T00:53:32.078Z,0.00
2019-05-30T00:54:32.116Z,0.00
2019-05-30T00:55:32.150Z,0.00
2019-05-30T00:56:32.188Z,0.00
2019-05-30T00:57:32.229Z,0.00
2019-05-30T00:58:32.276Z,0.00
2019-05-30T00:59:32.318Z,0.00
2019-05-30T01:00:42.907Z,0.00
2019-05-30T01:01:32.384Z,0.00
2019-05-30T01:02:32.424Z,0.00
2019-05-30T01:03:32.460Z,0.00
2019-05-30T01:04:32.499Z,0.00
2019-05-30T01:05:32.538Z,0.00
2019-05-30T01:06:32.577Z,0.00
2019-05-30T01:07:32.615Z,0.00
2019-05-30T01:08:32.656Z,0.00
2019-05-30T01:09:32.700Z,0.00
2019-05-30T01:10:32.730Z,0.00
2019-05-30T01:11:32.771Z,0.00
2019-05-30T01:12:32.809Z,0.00
2019-05-30T01:13:32.861Z,0.00
2019-05-30T01:14:32.895Z,0.00
2019-05-30T01:15:32.930Z,0.00
2019-05-30T01:16:32.961Z,0.00
2019-05-30T01:17:33.002Z,0.00
2019-05-30T01:18:33.042Z,0.00
2019-05-30T01:19:33.076Z,0.00
2019-05-30T01:20:33.113Z,0.00
2019-05-30T01:21:33.162Z,0.00
2019-05-30T01:22:33.193Z,0.00
2019-05-30T01:23:33.230Z,0.00
2019-05-30T01:24:33.270Z,0.00
2019-05-30T01:25:33.308Z,0.00
2019-05-30T01:26:33.355Z,0.00
2019-05-30T01:27:33.389Z,0.00
2019-05-30T01:28:33.424Z,0.00
2019-05-30T01:29:33.472Z,0.00
2019-05-30T01:30:33.590Z,0.00
2019-05-30T01:31:33.540Z,0.00
2019-05-30T01:32:33.577Z,0.00
2019-05-30T01:33:33.615Z,0.00
2019-05-30T01:34:33.656Z,0.00
2019-05-30T01:35:33.692Z,0.00
2019-05-30T01:36:33.743Z,0.00
2019-05-30T01:37:33.780Z,0.00
2019-05-30T01:38:33.809Z,0.00
2019-05-30T01:39:33.846Z,0.00
2019-05-30T01:40:33.885Z,0.00
2019-05-30T01:41:33.923Z,0.00
2019-05-30T01:42:33.963Z,0.00
2019-05-30T01:43:34.008Z,0.00
2019-05-30T01:44:34.040Z,0.00
2019-05-30T01:45:34.079Z,0.00
2019-05-30T01:46:34.115Z,0.00
2019-05-30T01:47:34.153Z,0.00
2019-05-30T01:48:34.192Z,0.00
2019-05-30T01:49:34.230Z,0.00
2019-05-30T01:50:34.268Z,0.00
2019-05-30T01:51:34.307Z,0.00
2019-05-30T01:52:34.346Z,0.00
2019-05-30T01:53:34.384Z,0.00
2019-05-30T01:54:34.423Z,0.00
2019-05-30T01:55:34.460Z,0.00
2019-05-30T01:56:34.498Z,0.00
2019-05-30T01:57:34.538Z,0.00
2019-05-30T01:58:34.576Z,0.00
2019-05-30T01:59:34.612Z,0.00
2019-05-30T02:00:34.652Z,0.00
2019-05-30T02:01:34.692Z,0.00
2019-05-30T02:02:34.738Z,0.00
2019-05-30T02:03:34.767Z,0.00
2019-05-30T02:04:34.808Z,0.00
2019-05-30T02:05:34.845Z,0.00
2019-05-30T02:06:37.988Z,0.00
2019-05-30T02:07:34.921Z,0.00
2019-05-30T02:08:34.996Z,0.00
2019-05-30T02:09:34.998Z,0.00
2019-05-30T02:10:35.038Z,0.00
2019-05-30T02:11:35.077Z,0.00
2019-05-30T02:12:35.113Z,0.00
2019-05-30T02:13:35.151Z,0.00
2019-05-30T02:14:35.195Z,0.00
2019-05-30T02:15:35.227Z,0.00
2019-05-30T02:16:35.271Z,0.00
2019-05-30T02:17:35.306Z,0.00
2019-05-30T02:18:35.344Z,0.00
2019-05-30T02:19:35.386Z,0.00
2019-05-30T02:20:35.431Z,0.00
2019-05-30T02:21:35.456Z,0.00
2019-05-30T02:22:35.496Z,0.00
2019-05-30T02:23:35.532Z,0.00
2019-05-30T02:24:35.575Z,0.00
2019-05-30T02:25:35.614Z,0.00
2019-05-30T02:26:35.655Z,0.00
2019-05-30T02:27:35.685Z,4.00
2019-05-30T02:28:35.732Z,4.00
2019-05-30T02:29:35.768Z,4.00
2019-05-30T02:30:35.828Z,4.00
2019-05-30T02:31:39.476Z,0.00
2019-05-30T02:32:35.878Z,4.00
2019-05-30T02:33:35.915Z,4.00
2019-05-30T02:34:35.960Z,4.00
2019-05-30T02:35:36.012Z,4.00
2019-05-30T02:36:36.030Z,4.00
2019-05-30T02:37:36.070Z,8.00
2019-05-30T02:38:36.113Z,4.00
2019-05-30T02:39:36.145Z,8.00
2019-05-30T02:40:36.186Z,8.00
2019-05-30T02:41:36.225Z,12.00
2019-05-30T02:42:36.265Z,12.00
2019-05-30T02:43:36.299Z,12.00
2019-05-30T02:44:36.336Z,16.00
2019-05-30T02:45:36.378Z,16.00
2019-05-30T02:46:36.419Z,16.00
2019-05-30T02:47:36.450Z,20.00
2019-05-30T02:48:54.775Z,24.00
2019-05-30T02:49:36.529Z,28.00
2019-05-30T02:50:36.567Z,32.00
2019-05-30T02:51:36.755Z,36.00
2019-05-30T02:52:36.642Z,40.00
2019-05-30T02:53:36.678Z,44.00
2019-05-30T02:54:36.739Z,52.00
2019-05-30T02:55:36.764Z,60.00
2019-05-30T02:56:36.807Z,68.00
2019-05-30T02:57:36.833Z,76.00
2019-05-30T02:58:36.881Z,84.00
2019-05-30T02:59:36.909Z,96.00
2019-05-30T03:00:36.950Z,108.00
2019-05-30T03:01:36.986Z,120.00
2019-05-30T03:02:37.023Z,132.00
2019-05-30T03:03:37.066Z,144.00
2019-05-30T03:04:37.100Z,164.00
2019-05-30T03:05:37.166Z,184.00
2019-05-30T03:06:37.183Z,204.00
2019-05-30T03:07:37.220Z,224.00
2019-05-30T03:08:37.259Z,244.00
2019-05-30T03:09:37.304Z,264.00
2019-05-30T03:10:37.329Z,288.00
2019-05-30T03:11:37.367Z,312.00
2019-05-30T03:12:37.407Z,332.00
2019-05-30T03:13:37.443Z,356.00
2019-05-30T03:14:37.483Z,384.00
2019-05-30T03:15:37.519Z,416.00
2019-05-30T03:16:37.556Z,452.00
2019-05-30T03:17:37.594Z,492.00
2019-05-30T03:18:37.634Z,536.00
2019-05-30T03:19:37.672Z,580.00
2019-05-30T03:20:37.807Z,628.00
2019-05-30T03:21:37.747Z,676.00
2019-05-30T03:22:37.788Z,728.00
2019-05-30T03:23:37.832Z,776.00
2019-05-30T03:24:37.862Z,828.00
2019-05-30T03:25:37.903Z,888.00
2019-05-30T03:26:37.939Z,944.00
2019-05-30T03:27:37.975Z,1000.00
2019-05-30T03:28:38.017Z,1064.00
2019-05-30T03:29:38.060Z,1128.00
2019-05-30T03:30:38.151Z,1192.00
2019-05-30T03:31:38.128Z,1256.00
2019-05-30T03:33:03.679Z,1324.00
2019-05-30T03:33:42.047Z,1396.00
2019-05-30T03:34:38.270Z,1468.00
2019-05-30T03:35:43.025Z,1536.00
2019-05-30T03:36:38.326Z,1608.00
2019-05-30T03:37:38.382Z,1676.00
2019-05-30T03:38:38.402Z,1744.00
2019-05-30T03:39:38.433Z,1804.00
2019-05-30T03:40:38.471Z,1876.00
2019-05-30T03:41:38.511Z,1948.00
2019-05-30T03:42:38.549Z,2008.00
2019-05-30T03:43:38.591Z,2072.00
2019-05-30T03:44:38.638Z,2120.00
2019-05-30T03:45:38.668Z,2168.00
2019-05-30T03:46:38.706Z,2216.00
2019-05-30T03:47:38.751Z,2300.00
2019-05-30T03:48:38.926Z,2412.00
2019-05-30T03:49:38.816Z,2532.00
2019-05-30T03:50:38.853Z,2632.00
2019-05-30T03:51:38.895Z,2720.00
2019-05-30T03:52:38.942Z,2820.00
2019-05-30T03:53:38.969Z,2928.00
2019-05-30T03:54:39.006Z,3032.00
2019-05-30T03:55:39.043Z,3120.00
2019-05-30T03:56:39.082Z,3196.00
2019-05-30T03:57:39.120Z,3264.00
2019-05-30T03:58:39.167Z,3332.00
2019-05-30T03:59:39.198Z,3396.00
2019-05-30T04:00:39.236Z,3460.00
2019-05-30T04:01:39.284Z,3532.00
2019-05-30T04:02:56.468Z,3604.00
2019-05-30T04:03:39.351Z,3696.00
2019-05-30T04:04:39.388Z,3796.00
2019-05-30T04:05:39.440Z,3900.00
2019-05-30T04:06:39.468Z,3992.00
2019-05-30T04:07:39.503Z,4096.00
2019-05-30T04:08:39.546Z,4184.00
2019-05-30T04:09:39.579Z,4272.00
2019-05-30T04:10:39.622Z,4352.00
2019-05-30T04:11:39.664Z,4440.00
2019-05-30T04:12:39.698Z,4516.00
2019-05-30T04:13:39.735Z,4576.00
2019-05-30T04:14:39.772Z,4636.00
2019-05-30T04:15:39.810Z,4696.00
2019-05-30T04:16:39.849Z,4760.00
2019-05-30T04:17:39.887Z,4820.00
2019-05-30T04:18:39.926Z,4884.00
2019-05-30T04:19:39.965Z,4940.00
2019-05-30T04:20:40.004Z,5000.00
2019-05-30T04:21:40.050Z,5096.00
2019-05-30T04:22:40.080Z,5216.00
2019-05-30T04:23:40.118Z,5316.00
2019-05-30T04:24:40.159Z,5400.00
2019-05-30T04:25:40.197Z,5496.00
2019-05-30T04:26:40.240Z,5596.00
2019-05-30T04:27:40.272Z,5672.00
2019-05-30T04:28:40.310Z,5748.00
2019-05-30T04:29:40.350Z,5840.00
2019-05-30T04:30:40.389Z,5928.00
2019-05-30T04:31:40.427Z,5980.00
2019-05-30T04:32:40.471Z,6004.00
2019-05-30T04:33:40.509Z,6024.00
2019-05-30T04:34:40.543Z,6076.00
2019-05-30T04:35:40.585Z,6148.00
2019-05-30T04:36:40.627Z,6216.00
2019-05-30T04:37:40.660Z,6268.00
2019-05-30T04:38:40.698Z,6304.00
2019-05-30T04:39:40.737Z,6352.00
2019-05-30T04:40:40.779Z,6420.00
2019-05-30T04:41:40.814Z,6508.00
2019-05-30T04:42:40.858Z,6608.00
2019-05-30T04:43:40.892Z,6696.00
2019-05-30T04:44:40.932Z,6784.00
2019-05-30T04:45:40.973Z,6868.00
2019-05-30T04:46:41.013Z,6956.00
2019-05-30T04:47:41.050Z,7008.00
2019-05-30T04:48:41.088Z,7076.00
2019-05-30T04:49:41.129Z,7144.00
2019-05-30T04:50:41.167Z,7224.00
2019-05-30T04:51:41.227Z,7296.00
2019-05-30T04:52:41.244Z,7360.00
2019-05-30T04:53:41.284Z,7424.00
2019-05-30T04:54:41.325Z,7480.00
2019-05-30T04:55:41.360Z,7492.00
2019-05-30T04:56:41.400Z,7528.00
2019-05-30T04:57:41.440Z,7564.00
2019-05-30T04:58:42.749Z,7612.00
2019-05-30T04:59:41.520Z,7668.00
2019-05-30T05:00:41.559Z,7716.00
2019-05-30T05:01:41.602Z,7776.00
2019-05-30T05:02:41.649Z,7836.00
2019-05-30T05:03:46.396Z,7904.00
2019-05-30T05:04:41.715Z,7960.00
2019-05-30T05:05:41.755Z,8016.00
2019-05-30T05:06:41.805Z,8076.00
2019-05-30T05:07:41.836Z,8140.00
2019-05-30T05:08:41.883Z,8172.00
2019-05-30T05:09:41.924Z,8192.00
2019-05-30T05:10:41.954Z,8196.00
2019-05-30T05:11:42.007Z,8192.00
2019-05-30T05:12:42.031Z,8180.00
2019-05-30T05:13:42.077Z,8176.00
2019-05-30T05:14:42.116Z,8188.00
2019-05-30T05:15:42.151Z,8228.00
2019-05-30T05:16:42.190Z,8312.00
2019-05-30T05:17:42.232Z,8476.00
2019-05-30T05:18:42.275Z,8620.00
2019-05-30T05:19:42.313Z,8628.00
2019-05-30T05:20:42.353Z,8644.00
2019-05-30T05:21:42.392Z,8764.00
2019-05-30T05:22:42.429Z,8936.00
2019-05-30T05:23:42.469Z,9108.00
2019-05-30T05:24:42.510Z,9188.00
2019-05-30T05:25:42.548Z,9240.00
2019-05-30T05:26:42.589Z,9276.00
2019-05-30T05:27:42.629Z,9312.00
2019-05-30T05:28:42.673Z,9340.00
2019-05-30T05:29:42.709Z,9344.00
2019-05-30T05:30:42.750Z,9348.00
2019-05-30T05:31:42.790Z,9336.00
2019-05-30T05:32:42.832Z,9320.00
2019-05-30T05:33:55.795Z,9300.00
2019-05-30T05:34:42.909Z,9284.00
2019-05-30T05:35:42.952Z,9260.00
2019-05-30T05:36:42.991Z,9220.00
2019-05-30T05:37:43.042Z,9160.00
2019-05-30T05:38:43.072Z,9072.00
2019-05-30T05:39:43.123Z,8952.00
2019-05-30T05:40:43.151Z,8812.00
2019-05-30T05:41:43.201Z,8680.00
2019-05-30T05:42:43.252Z,8576.00
2019-05-30T05:43:43.273Z,8472.00
2019-05-30T05:44:43.313Z,8376.00
2019-05-30T05:45:43.356Z,8280.00
2019-05-30T05:46:43.396Z,8208.00
2019-05-30T05:47:43.437Z,8160.00
2019-05-30T05:48:43.478Z,8136.00
2019-05-30T05:49:43.520Z,8148.00
2019-05-30T05:50:43.559Z,8156.00
2019-05-30T05:51:43.597Z,8208.00
2019-05-30T05:52:43.640Z,8304.00
2019-05-30T05:53:43.683Z,8328.00
2019-05-30T05:54:43.721Z,8376.00
2019-05-30T05:55:43.761Z,8420.00
2019-05-30T05:56:43.804Z,8472.00
2019-05-30T05:57:43.843Z,8524.00
2019-05-30T05:58:43.883Z,8560.00
2019-05-30T05:59:43.923Z,8604.00
2019-05-30T06:00:43.966Z,8620.00
2019-05-30T06:01:44.011Z,8628.00
2019-05-30T06:02:44.047Z,8628.00
2019-05-30T06:03:44.087Z,8628.00
2019-05-30T06:04:44.132Z,8640.00
2019-05-30T06:05:52.681Z,8680.00
2019-05-30T06:06:44.213Z,8716.00
2019-05-30T06:07:44.254Z,8772.00
2019-05-30T06:08:44.300Z,8824.00
2019-05-30T06:09:44.337Z,8880.00
2019-05-30T06:10:44.378Z,8928.00
2019-05-30T06:11:44.419Z,8984.00
2019-05-30T06:12:44.461Z,9048.00
2019-05-30T06:13:44.502Z,9100.00
2019-05-30T06:14:44.546Z,9152.00
2019-05-30T06:15:44.585Z,9208.00
2019-05-30T06:16:44.626Z,9264.00
2019-05-30T06:17:44.675Z,9316.00
2019-05-30T06:18:44.711Z,9376.00
2019-05-30T06:19:46.675Z,9440.00
2019-05-30T06:20:44.796Z,9492.00
2019-05-30T06:21:53.553Z,9548.00
2019-05-30T06:22:44.888Z,9584.00
2019-05-30T06:23:46.032Z,9620.00
2019-05-30T06:24:44.962Z,9668.00
2019-05-30T06:25:45.004Z,9656.00
2019-05-30T06:26:45.048Z,9620.00
2019-05-30T06:27:45.089Z,9568.00
2019-05-30T06:28:45.132Z,9488.00
2019-05-30T06:29:45.174Z,9396.00
2019-05-30T06:30:45.216Z,9260.00
2019-05-30T06:31:45.257Z,9100.00
2019-05-30T06:32:45.301Z,8940.00
2019-05-30T06:33:45.345Z,8772.00
2019-05-30T06:34:45.386Z,8668.00
2019-05-30T06:35:45.427Z,8660.00
2019-05-30T06:36:45.471Z,8584.00
2019-05-30T06:37:45.513Z,8492.00
2019-05-30T06:38:45.555Z,8372.00
2019-05-30T06:39:45.605Z,8272.00
2019-05-30T06:40:45.641Z,8172.00
2019-05-30T06:41:45.685Z,8080.00
2019-05-30T06:42:45.734Z,8028.00
2019-05-30T06:43:45.770Z,8012.00
2019-05-30T06:44:45.813Z,8036.00
2019-05-30T06:45:45.858Z,8044.00
2019-05-30T06:46:45.900Z,8036.00
2019-05-30T06:47:45.950Z,8052.00
2019-05-30T06:48:45.983Z,8084.00
2019-05-30T06:49:46.030Z,8128.00
2019-05-30T06:50:46.070Z,8160.00
2019-05-30T06:51:46.125Z,8176.00
2019-05-30T06:52:46.174Z,8208.00
2019-05-30T06:53:46.215Z,8224.00
2019-05-30T06:54:46.242Z,8244.00
2019-05-30T06:55:46.289Z,8264.00
2019-05-30T06:56:46.328Z,8300.00
2019-05-30T06:57:46.372Z,8324.00
2019-05-30T06:58:49.047Z,8340.00
2019-05-30T06:59:46.460Z,8344.00
2019-05-30T07:00:46.504Z,8352.00
2019-05-30T07:01:46.547Z,8376.00
2019-05-30T07:02:46.639Z,8428.00
2019-05-30T07:03:46.810Z,8504.00
2019-05-30T07:04:51.771Z,8624.00
2019-05-30T07:05:47.247Z,8780.00
2019-05-30T07:06:47.045Z,8924.00
2019-05-30T07:07:46.948Z,9052.00
2019-05-30T07:08:46.852Z,9148.00
2019-05-30T07:09:46.894Z,9288.00
2019-05-30T07:10:46.940Z,9452.00
2019-05-30T07:11:46.981Z,9584.00
2019-05-30T07:12:47.031Z,9636.00
2019-05-30T07:13:47.070Z,9588.00
2019-05-30T07:14:47.123Z,9400.00
2019-05-30T07:15:47.317Z,9520.00
2019-05-30T07:16:47.202Z,9468.00
2019-05-30T07:17:47.259Z,9396.00
2019-05-30T07:18:47.291Z,9240.00
2019-05-30T07:19:47.333Z,9292.00
2019-05-30T07:20:47.378Z,9328.00
2019-05-30T07:21:47.424Z,9204.00
2019-05-30T07:22:47.469Z,9124.00
2019-05-30T07:23:47.541Z,9044.00
2019-05-30T07:24:47.557Z,9212.00
2019-05-30T07:25:47.601Z,9224.00
2019-05-30T07:26:47.651Z,9228.00
2019-05-30T07:27:47.687Z,9144.00
2019-05-30T07:28:47.741Z,9096.00
2019-05-30T07:29:47.779Z,9136.00
2019-05-30T07:30:47.828Z,9100.00
2019-05-30T07:31:47.866Z,8960.00
2019-05-30T07:32:47.913Z,8712.00
2019-05-30T07:33:47.963Z,8320.00
2019-05-30T07:34:48.006Z,8120.00
2019-05-30T07:35:48.045Z,8068.00
2019-05-30T07:36:48.092Z,8060.00
2019-05-30T07:37:48.137Z,8036.00
2019-05-30T07:38:48.199Z,8004.00
2019-05-30T07:39:48.226Z,7964.00
2019-05-30T07:40:48.275Z,7896.00
2019-05-30T07:42:04.930Z,7816.00
2019-05-30T07:42:48.358Z,7736.00
2019-05-30T07:43:48.402Z,7664.00
2019-05-30T07:44:48.447Z,7604.00
2019-05-30T07:45:57.718Z,7576.00
2019-05-30T07:46:48.545Z,7564.00
2019-05-30T07:47:48.581Z,7592.00
2019-05-30T07:48:48.643Z,7660.00
2019-05-30T07:49:48.670Z,7740.00
2019-05-30T07:50:48.717Z,7860.00
2019-05-30T07:51:48.760Z,7972.00
2019-05-30T07:52:48.814Z,8036.00
2019-05-30T07:53:48.853Z,8076.00
2019-05-30T07:54:48.894Z,8140.00
2019-05-30T07:55:48.955Z,8232.00
2019-05-30T07:56:48.984Z,8332.00
2019-05-30T07:57:49.033Z,8408.00
2019-05-30T07:58:49.074Z,8404.00
2019-05-30T07:59:49.120Z,8240.00
2019-05-30T08:00:49.165Z,7932.00
2019-05-30T08:01:49.208Z,7572.00
2019-05-30T08:02:49.254Z,7240.00
2019-05-30T08:03:49.298Z,7060.00
2019-05-30T08:04:49.345Z,7040.00
2019-05-30T08:05:49.390Z,7132.00
2019-05-30T08:06:49.435Z,7100.00
2019-05-30T08:07:49.488Z,7016.00
2019-05-30T08:08:49.537Z,6960.00
2019-05-30T08:09:49.579Z,6956.00
2019-05-30T08:10:49.621Z,6936.00
2019-05-30T08:11:49.663Z,6928.00
2019-05-30T08:12:49.707Z,6928.00
2019-05-30T08:13:49.761Z,6944.00
2019-05-30T08:14:49.796Z,6892.00
2019-05-30T08:15:49.839Z,6756.00
2019-05-30T08:16:49.885Z,6592.00
2019-05-30T08:17:49.929Z,6588.00
2019-05-30T08:18:49.976Z,6660.00
2019-05-30T08:19:50.026Z,6664.00
2019-05-30T08:20:50.071Z,6700.00
2019-05-30T08:21:50.112Z,6704.00
2019-05-30T08:22:50.160Z,6744.00
2019-05-30T08:23:50.221Z,6732.00
2019-05-30T08:24:50.249Z,6752.00
2019-05-30T08:25:50.306Z,6828.00
2019-05-30T08:26:50.357Z,6876.00
2019-05-30T08:27:50.386Z,6964.00
2019-05-30T08:28:50.428Z,7168.00
2019-05-30T08:29:50.475Z,7372.00
2019-05-30T08:30:50.527Z,7412.00
2019-05-30T08:31:50.574Z,7556.00
2019-05-30T08:32:50.618Z,7716.00
2019-05-30T08:33:50.655Z,7956.00
2019-05-30T08:34:50.707Z,8600.00
2019-05-30T08:35:50.750Z,9476.00
2019-05-30T08:36:50.798Z,10772.00
2019-05-30T08:37:50.860Z,11468.00
2019-05-30T08:38:50.902Z,12036.00
2019-05-30T08:39:50.929Z,12020.00
2019-05-30T08:40:50.980Z,11424.00
2019-05-30T08:41:51.019Z,11036.00
2019-05-30T08:42:51.064Z,11288.00
2019-05-30T08:43:51.111Z,12164.00
2019-05-30T08:44:51.164Z,13380.00
2019-05-30T08:45:51.203Z,14960.00
2019-05-30T08:46:51.247Z,17120.00
2019-05-30T08:47:51.298Z,17920.00
2019-05-30T08:48:51.379Z,17376.00
2019-05-30T08:49:51.396Z,16576.00
2019-05-30T08:50:51.438Z,16608.00
2019-05-30T08:51:51.480Z,16288.00
2019-05-30T08:52:51.534Z,15212.00
2019-05-30T08:53:51.578Z,13832.00
2019-05-30T08:54:51.618Z,14996.00
2019-05-30T08:55:51.665Z,15912.00
2019-05-30T08:56:51.715Z,16672.00
2019-05-30T08:57:51.805Z,16320.00
2019-05-30T08:58:51.807Z,16352.00
2019-05-30T08:59:51.848Z,16224.00
2019-05-30T09:00:51.895Z,16864.00
2019-05-30T09:01:53.244Z,17248.00
2019-05-30T09:02:51.988Z,18080.00
2019-05-30T09:03:52.039Z,19008.00
2019-05-30T09:04:52.089Z,19168.00
2019-05-30T09:06:02.627Z,19104.00
2019-05-30T09:06:52.183Z,17536.00
2019-05-30T09:07:52.230Z,16124.00
2019-05-30T09:08:52.267Z,14852.00
2019-05-30T09:09:52.326Z,13620.00
2019-05-30T09:10:52.363Z,12368.00
2019-05-30T09:11:52.410Z,11572.00
2019-05-30T09:12:52.458Z,11120.00
2019-05-30T09:13:52.505Z,10576.00
2019-05-30T09:14:52.565Z,9632.00
2019-05-30T09:15:52.599Z,8424.00
2019-05-30T09:16:53.027Z,7468.00
2019-05-30T09:17:52.695Z,6880.00
2019-05-30T09:18:52.749Z,6804.00
2019-05-30T09:19:52.787Z,7088.00
2019-05-30T09:20:52.854Z,7988.00
2019-05-30T09:21:52.891Z,8832.00
2019-05-30T09:22:52.931Z,9376.00
2019-05-30T09:23:56.889Z,9132.00
2019-05-30T09:24:53.024Z,8880.00
2019-05-30T09:25:53.136Z,8984.00
2019-05-30T09:26:53.121Z,10256.00
2019-05-30T09:27:53.164Z,11092.00
2019-05-30T09:28:53.209Z,10376.00
2019-05-30T09:29:53.271Z,9340.00
2019-05-30T09:30:53.307Z,9076.00
2019-05-30T09:31:53.351Z,8740.00
2019-05-30T09:32:53.399Z,8628.00
2019-05-30T09:33:53.445Z,8912.00
2019-05-30T09:34:53.491Z,9500.00
2019-05-30T09:35:53.546Z,11176.00
2019-05-30T09:36:53.585Z,13136.00
2019-05-30T09:37:53.635Z,13980.00
2019-05-30T09:38:53.679Z,13640.00
2019-05-30T09:39:53.730Z,13388.00
2019-05-30T09:40:53.773Z,12908.00
2019-05-30T09:41:53.826Z,12764.00
2019-05-30T09:42:53.875Z,13316.00
2019-05-30T09:43:53.914Z,14464.00
2019-05-30T09:44:53.960Z,15608.00
2019-05-30T09:45:54.007Z,17408.00
2019-05-30T09:46:54.052Z,18464.00
2019-05-30T09:47:54.113Z,17856.00
2019-05-30T09:48:54.149Z,17216.00
2019-05-30T09:49:54.197Z,16036.00
2019-05-30T09:50:54.256Z,15060.00
2019-05-30T09:51:54.291Z,14236.00
2019-05-30T09:52:54.343Z,14180.00
2019-05-30T09:53:54.385Z,13956.00
2019-05-30T09:54:54.440Z,14036.00
2019-05-30T09:55:54.498Z,14176.00
2019-05-30T09:56:57.263Z,14216.00
2019-05-30T09:57:54.584Z,14716.00
2019-05-30T09:58:54.634Z,15548.00
2019-05-30T09:59:54.669Z,17216.00
2019-05-30T10:00:54.715Z,18432.00
2019-05-30T10:01:54.821Z,19808.00
2019-05-30T10:02:54.815Z,20384.00
2019-05-30T10:03:54.864Z,20416.00
2019-05-30T10:04:54.908Z,20320.00
2019-05-30T10:05:54.954Z,19872.00
2019-05-30T10:06:55.001Z,19840.00
2019-05-30T10:07:55.056Z,19680.00
2019-05-30T10:08:55.096Z,19872.00
2019-05-30T10:09:55.145Z,20832.00
2019-05-30T10:10:55.190Z,22144.00
2019-05-30T10:11:55.543Z,22400.00
2019-05-30T10:12:56.291Z,22304.00
2019-05-30T10:13:55.353Z,22784.00
2019-05-30T10:14:55.391Z,22624.00
2019-05-30T10:15:56.628Z,22976.00
2019-05-30T10:16:56.869Z,23552.00
2019-05-30T10:17:56.871Z,23360.00
2019-05-30T10:18:56.894Z,22720.00
2019-05-30T10:19:55.623Z,22016.00
2019-05-30T10:20:57.037Z,22016.00
2019-05-30T10:21:57.149Z,22464.00
2019-05-30T10:22:57.128Z,22656.00
2019-05-30T10:23:57.466Z,23168.00
2019-05-30T10:24:55.863Z,23232.00
2019-05-30T10:25:55.927Z,22688.00
2019-05-30T10:26:57.305Z,22304.00
2019-05-30T10:27:56.045Z,21024.00
2019-05-30T10:28:56.059Z,19392.00
2019-05-30T10:29:56.108Z,18016.00
2019-05-30T10:30:59.267Z,17824.00
2019-05-30T10:31:56.995Z,18624.00
2019-05-30T10:32:56.253Z,19136.00
2019-05-30T10:33:56.924Z,19520.00
2019-05-30T10:34:56.442Z,19680.00
2019-05-30T10:35:57.047Z,19680.00
2019-05-30T10:36:56.448Z,19488.00
2019-05-30T10:37:56.920Z,19264.00
2019-05-30T10:38:56.553Z,19840.00
2019-05-30T10:39:58.728Z,20768.00
2019-05-30T10:40:56.646Z,21472.00
2019-05-30T10:41:57.237Z,21440.00
2019-05-30T10:42:56.949Z,20288.00
2019-05-30T10:43:57.312Z,18464.00
2019-05-30T10:44:56.853Z,17056.00
2019-05-30T10:45:57.514Z,16448.00
2019-05-30T10:46:56.944Z,16256.00
2019-05-30T10:47:57.502Z,16512.00
2019-05-30T10:48:57.036Z,16992.00
2019-05-30T10:49:57.747Z,17760.00
2019-05-30T10:50:57.140Z,18528.00
2019-05-30T10:51:59.239Z,19840.00
2019-05-30T10:52:57.229Z,21760.00
2019-05-30T10:53:57.286Z,23584.00
2019-05-30T10:54:57.329Z,24576.00
2019-05-30T10:55:57.379Z,24704.00
2019-05-30T10:56:57.424Z,24192.00
2019-05-30T10:57:59.533Z,23008.00
2019-05-30T10:58:57.528Z,21632.00
2019-05-30T10:59:57.572Z,19776.00
2019-05-30T11:00:58.014Z,17856.00
2019-05-30T11:01:57.669Z,16416.00
2019-05-30T11:02:57.717Z,15840.00
2019-05-30T11:03:57.782Z,15444.00
2019-05-30T11:04:57.818Z,15648.00
2019-05-30T11:05:57.864Z,16384.00
2019-05-30T11:07:10.689Z,17984.00
2019-05-30T11:08:05.114Z,19840.00
2019-05-30T11:08:58.010Z,21696.00
2019-05-30T11:09:58.059Z,23168.00
2019-05-30T11:10:58.113Z,23840.00
2019-05-30T11:11:58.157Z,23680.00
2019-05-30T11:13:05.613Z,22912.00
2019-05-30T11:13:58.256Z,21856.00
2019-05-30T11:14:58.306Z,20640.00
2019-05-30T11:15:58.351Z,19776.00
2019-05-30T11:16:58.401Z,18848.00
2019-05-30T11:17:58.450Z,18432.00
2019-05-30T11:18:58.504Z,18784.00
2019-05-30T11:19:58.548Z,19648.00
2019-05-30T11:20:58.769Z,20896.00
2019-05-30T11:21:58.658Z,22176.00
2019-05-30T11:22:58.702Z,23008.00
2019-05-30T11:23:58.763Z,23232.00
2019-05-30T11:24:59.377Z,22944.00
2019-05-30T11:25:58.942Z,22400.00
2019-05-30T11:26:59.044Z,21824.00
2019-05-30T11:27:58.992Z,20928.00
2019-05-30T11:28:58.990Z,19424.00
2019-05-30T11:29:59.087Z,17728.00
2019-05-30T11:30:59.089Z,15496.00
2019-05-30T11:31:59.177Z,13832.00
2019-05-30T11:32:59.603Z,12752.00
2019-05-30T11:33:59.266Z,12460.00
2019-05-30T11:34:59.673Z,13036.00
2019-05-30T11:35:59.346Z,14004.00
2019-05-30T11:37:18.026Z,14536.00
2019-05-30T11:37:59.432Z,14896.00
2019-05-30T11:38:59.520Z,14932.00
2019-05-30T11:39:59.530Z,14784.00
2019-05-30T11:40:59.720Z,14556.00
2019-05-30T11:41:59.642Z,14472.00
2019-05-30T11:43:00.006Z,14552.00
2019-05-30T11:44:01.923Z,14404.00
2019-05-30T11:44:59.998Z,14112.00
2019-05-30T11:45:59.926Z,14176.00
2019-05-30T11:46:59.892Z,14372.00
2019-05-30T11:48:00.218Z,14644.00
2019-05-30T11:49:00.118Z,14840.00
2019-05-30T11:50:00.403Z,14932.00
2019-05-30T11:51:00.158Z,14832.00
2019-05-30T11:52:00.125Z,14744.00
2019-05-30T11:53:00.324Z,14612.00
2019-05-30T11:54:00.877Z,14540.00
2019-05-30T11:55:00.401Z,14560.00
2019-05-30T11:56:00.508Z,14572.00
2019-05-30T11:57:00.391Z,14548.00
2019-05-30T11:58:00.433Z,14480.00
2019-05-30T11:59:00.449Z,14380.00
2019-05-30T12:00:00.651Z,14264.00
2019-05-30T12:01:00.698Z,14084.00
2019-05-30T12:02:00.615Z,13824.00
2019-05-30T12:03:00.785Z,13496.00
2019-05-30T12:04:00.868Z,13108.00
2019-05-30T12:05:00.911Z,12840.00
2019-05-30T12:06:00.892Z,12768.00
2019-05-30T12:07:00.973Z,12852.00
2019-05-30T12:08:01.067Z,12968.00
2019-05-30T12:09:01.207Z,13064.00
2019-05-30T12:10:01.248Z,13148.00
2019-05-30T12:11:01.418Z,13296.00
2019-05-30T12:12:01.435Z,13592.00
2019-05-30T12:13:01.612Z,13980.00
2019-05-30T12:14:01.569Z,14568.00
2019-05-30T12:15:01.644Z,15424.00
2019-05-30T12:16:01.850Z,16832.00
2019-05-30T12:17:01.615Z,17920.00